sensor_id;sensor_type;location;lat;lon;timestamp;P1;durP1;ratioP1;P2;durP2;ratioP2
78783;SDS011;68127;51.050;14.084;2023-05-10T00:00:08;4.10;;;2.45;;
78783;SDS011;68127;51.050;14.084;2023-05-10T00:02:34;5.28;;;2.22;;
78783;SDS011;68127;51.050;14.084;2023-05-10T00:04:59;6.00;;;2.60;;
78783;SDS011;68127;51.050;14.084;2023-05-10T00:07:25;5.60;;;2.33;;
78783;SDS011;68127;51.050;14.084;2023-05-10T00:09:50;4.78;;;2.20;;
78783;SDS011;68127;51.050;14.084;2023-05-10T00:12:15;4.43;;;2.60;;
78783;SDS011;68127;51.050;14.084;2023-05-10T00:14:41;5.80;;;2.67;;
78783;SDS011;68127;51.050;14.084;2023-05-10T00:17:06;7.45;;;2.60;;
78783;SDS011;68127;51.050;14.084;2023-05-10T00:19:31;5.22;;;2.22;;
78783;SDS011;68127;51.050;14.084;2023-05-10T00:21:57;3.80;;;2.20;;
78783;SDS011;68127;51.050;14.084;2023-05-10T00:24:22;3.78;;;2.20;;
78783;SDS011;68127;51.050;14.084;2023-05-10T00:26:47;5.15;;;2.30;;
78783;SDS011;68127;51.050;14.084;2023-05-10T00:29:12;3.78;;;2.10;;
78783;SDS011;68127;51.050;14.084;2023-05-10T00:31:38;4.70;;;2.10;;
78783;SDS011;68127;51.050;14.084;2023-05-10T00:34:03;4.15;;;2.17;;
78783;SDS011;68127;51.050;14.084;2023-05-10T00:36:28;3.45;;;2.17;;
78783;SDS011;68127;51.050;14.084;2023-05-10T00:38:53;4.10;;;2.25;;
78783;SDS011;68127;51.050;14.084;2023-05-10T00:41:19;4.80;;;2.28;;
78783;SDS011;68127;51.050;14.084;2023-05-10T00:43:45;5.65;;;2.20;;
78783;SDS011;68127;51.050;14.084;2023-05-10T00:46:11;6.00;;;2.53;;
78783;SDS011;68127;51.050;14.084;2023-05-10T00:48:37;5.57;;;2.30;;
78783;SDS011;68127;51.050;14.084;2023-05-10T00:51:02;5.10;;;2.40;;
78783;SDS011;68127;51.050;14.084;2023-05-10T00:53:27;3.78;;;2.10;;
78783;SDS011;68127;51.050;14.084;2023-05-10T00:55:53;4.90;;;2.33;;
78783;SDS011;68127;51.050;14.084;2023-05-10T00:58:18;4.10;;;2.17;;
78783;SDS011;68127;51.050;14.084;2023-05-10T01:00:44;4.15;;;2.20;;
78783;SDS011;68127;51.050;14.084;2023-05-10T01:03:11;3.72;;;2.05;;
78783;SDS011;68127;51.050;14.084;2023-05-10T01:05:37;3.67;;;2.10;;
78783;SDS011;68127;51.050;14.084;2023-05-10T01:08:02;4.95;;;2.30;;
78783;SDS011;68127;51.050;14.084;2023-05-10T01:10:27;4.45;;;2.47;;
78783;SDS011;68127;51.050;14.084;2023-05-10T01:12:53;3.83;;;1.98;;
78783;SDS011;68127;51.050;14.084;2023-05-10T01:15:18;3.75;;;2.10;;
78783;SDS011;68127;51.050;14.084;2023-05-10T01:17:45;5.32;;;2.53;;
78783;SDS011;68127;51.050;14.084;2023-05-10T01:20:12;5.80;;;2.30;;
78783;SDS011;68127;51.050;14.084;2023-05-10T01:22:59;6.68;;;2.40;;
78783;SDS011;68127;51.050;14.084;2023-05-10T01:25:43;3.75;;;2.22;;
78783;SDS011;68127;51.050;14.084;2023-05-10T01:28:50;3.90;;;2.10;;
78783;SDS011;68127;51.050;14.084;2023-05-10T01:34:16;3.95;;;2.17;;
78783;SDS011;68127;51.050;14.084;2023-05-10T01:36:54;4.45;;;2.33;;
78783;SDS011;68127;51.050;14.084;2023-05-10T01:39:44;3.70;;;2.05;;
78783;SDS011;68127;51.050;14.084;2023-05-10T01:42:21;4.47;;;2.10;;
78783;SDS011;68127;51.050;14.084;2023-05-10T01:47:32;3.67;;;2.08;;
78783;SDS011;68127;51.050;14.084;2023-05-10T01:50:02;4.80;;;2.50;;
78783;SDS011;68127;51.050;14.084;2023-05-10T01:52:33;4.32;;;2.30;;
78783;SDS011;68127;51.050;14.084;2023-05-10T01:55:04;5.68;;;2.30;;
78783;SDS011;68127;51.050;14.084;2023-05-10T01:57:34;4.80;;;2.58;;
78783;SDS011;68127;51.050;14.084;2023-05-10T02:00:02;4.60;;;2.25;;
78783;SDS011;68127;51.050;14.084;2023-05-10T02:02:33;4.60;;;2.22;;
78783;SDS011;68127;51.050;14.084;2023-05-10T02:05:02;4.25;;;2.28;;
78783;SDS011;68127;51.050;14.084;2023-05-10T02:07:29;3.47;;;1.92;;
78783;SDS011;68127;51.050;14.084;2023-05-10T02:09:55;5.28;;;2.42;;
78783;SDS011;68127;51.050;14.084;2023-05-10T02:12:21;4.85;;;2.40;;
78783;SDS011;68127;51.050;14.084;2023-05-10T02:14:47;4.47;;;2.05;;
78783;SDS011;68127;51.050;14.084;2023-05-10T02:17:12;4.38;;;2.30;;
78783;SDS011;68127;51.050;14.084;2023-05-10T02:19:38;4.63;;;2.30;;
78783;SDS011;68127;51.050;14.084;2023-05-10T02:22:05;4.32;;;2.42;;
78783;SDS011;68127;51.050;14.084;2023-05-10T02:24:33;3.75;;;2.17;;
78783;SDS011;68127;51.050;14.084;2023-05-10T02:26:59;3.85;;;2.10;;
78783;SDS011;68127;51.050;14.084;2023-05-10T02:29:25;4.85;;;2.40;;
78783;SDS011;68127;51.050;14.084;2023-05-10T02:31:52;3.72;;;2.28;;
78783;SDS011;68127;51.050;14.084;2023-05-10T02:34:20;4.68;;;2.40;;
78783;SDS011;68127;51.050;14.084;2023-05-10T02:36:46;3.80;;;2.22;;
78783;SDS011;68127;51.050;14.084;2023-05-10T02:39:12;4.38;;;2.33;;
78783;SDS011;68127;51.050;14.084;2023-05-10T02:41:39;3.78;;;2.10;;
78783;SDS011;68127;51.050;14.084;2023-05-10T02:44:05;3.78;;;2.10;;
78783;SDS011;68127;51.050;14.084;2023-05-10T02:46:32;3.30;;;1.90;;
78783;SDS011;68127;51.050;14.084;2023-05-10T02:48:57;5.07;;;2.40;;
78783;SDS011;68127;51.050;14.084;2023-05-10T02:51:24;6.13;;;2.50;;
78783;SDS011;68127;51.050;14.084;2023-05-10T02:53:50;6.57;;;2.42;;
78783;SDS011;68127;51.050;14.084;2023-05-10T02:56:25;4.63;;;2.22;;
78783;SDS011;68127;51.050;14.084;2023-05-10T02:58:54;4.47;;;2.38;;
78783;SDS011;68127;51.050;14.084;2023-05-10T03:01:20;4.85;;;2.38;;
78783;SDS011;68127;51.050;14.084;2023-05-10T03:03:45;5.45;;;2.38;;
78783;SDS011;68127;51.050;14.084;2023-05-10T03:06:10;4.47;;;2.55;;
78783;SDS011;68127;51.050;14.084;2023-05-10T03:08:35;5.38;;;2.50;;
78783;SDS011;68127;51.050;14.084;2023-05-10T03:16:20;4.68;;;2.50;;
78783;SDS011;68127;51.050;14.084;2023-05-10T03:18:56;6.68;;;2.25;;
78783;SDS011;68127;51.050;14.084;2023-05-10T03:21:34;5.13;;;2.35;;
78783;SDS011;68127;51.050;14.084;2023-05-10T03:24:05;4.47;;;2.63;;
78783;SDS011;68127;51.050;14.084;2023-05-10T03:26:32;5.45;;;2.50;;
78783;SDS011;68127;51.050;14.084;2023-05-10T03:28:57;4.18;;;2.13;;
78783;SDS011;68127;51.050;14.084;2023-05-10T03:31:24;4.68;;;2.40;;
78783;SDS011;68127;51.050;14.084;2023-05-10T03:33:49;6.47;;;2.47;;
78783;SDS011;68127;51.050;14.084;2023-05-10T03:36:15;4.43;;;2.28;;
78783;SDS011;68127;51.050;14.084;2023-05-10T03:38:41;4.47;;;2.35;;
78783;SDS011;68127;51.050;14.084;2023-05-10T03:41:06;4.60;;;2.63;;
78783;SDS011;68127;51.050;14.084;2023-05-10T03:43:31;4.25;;;2.35;;
78783;SDS011;68127;51.050;14.084;2023-05-10T03:45:57;4.07;;;2.20;;
78783;SDS011;68127;51.050;14.084;2023-05-10T03:48:22;6.07;;;2.58;;
78783;SDS011;68127;51.050;14.084;2023-05-10T03:50:47;3.92;;;2.28;;
78783;SDS011;68127;51.050;14.084;2023-05-10T03:53:14;4.40;;;2.30;;
78783;SDS011;68127;51.050;14.084;2023-05-10T03:55:39;4.65;;;2.65;;
78783;SDS011;68127;51.050;14.084;2023-05-10T03:58:04;4.57;;;2.30;;
78783;SDS011;68127;51.050;14.084;2023-05-10T04:00:30;4.03;;;2.50;;
78783;SDS011;68127;51.050;14.084;2023-05-10T04:02:55;4.82;;;2.58;;
78783;SDS011;68127;51.050;14.084;2023-05-10T04:05:21;6.50;;;2.25;;
78783;SDS011;68127;51.050;14.084;2023-05-10T04:07:46;3.85;;;2.17;;
78783;SDS011;68127;51.050;14.084;2023-05-10T04:10:12;4.10;;;2.42;;
78783;SDS011;68127;51.050;14.084;2023-05-10T04:12:37;3.97;;;2.35;;
78783;SDS011;68127;51.050;14.084;2023-05-10T04:15:02;4.78;;;2.20;;
78783;SDS011;68127;51.050;14.084;2023-05-10T04:17:28;4.20;;;2.20;;
78783;SDS011;68127;51.050;14.084;2023-05-10T04:19:53;4.28;;;2.38;;
78783;SDS011;68127;51.050;14.084;2023-05-10T04:22:19;5.03;;;2.40;;
78783;SDS011;68127;51.050;14.084;2023-05-10T04:24:45;4.88;;;2.63;;
78783;SDS011;68127;51.050;14.084;2023-05-10T04:27:10;4.55;;;2.17;;
78783;SDS011;68127;51.050;14.084;2023-05-10T04:29:36;6.75;;;2.47;;
78783;SDS011;68127;51.050;14.084;2023-05-10T04:32:01;7.18;;;2.63;;
78783;SDS011;68127;51.050;14.084;2023-05-10T04:34:27;5.28;;;2.28;;
78783;SDS011;68127;51.050;14.084;2023-05-10T04:36:52;5.35;;;2.22;;
78783;SDS011;68127;51.050;14.084;2023-05-10T04:39:17;4.25;;;2.28;;
78783;SDS011;68127;51.050;14.084;2023-05-10T04:41:43;4.78;;;2.35;;
78783;SDS011;68127;51.050;14.084;2023-05-10T04:44:08;3.60;;;2.13;;
78783;SDS011;68127;51.050;14.084;2023-05-10T04:46:33;4.05;;;2.22;;
78783;SDS011;68127;51.050;14.084;2023-05-10T04:48:58;6.13;;;2.42;;
78783;SDS011;68127;51.050;14.084;2023-05-10T04:51:24;4.78;;;2.53;;
78783;SDS011;68127;51.050;14.084;2023-05-10T04:53:49;3.88;;;2.20;;
78783;SDS011;68127;51.050;14.084;2023-05-10T04:56:14;4.43;;;2.60;;
78783;SDS011;68127;51.050;14.084;2023-05-10T04:58:39;7.28;;;2.60;;
78783;SDS011;68127;51.050;14.084;2023-05-10T05:01:08;3.72;;;2.20;;
78783;SDS011;68127;51.050;14.084;2023-05-10T05:03:34;6.88;;;2.58;;
78783;SDS011;68127;51.050;14.084;2023-05-10T05:05:59;6.70;;;3.55;;
78783;SDS011;68127;51.050;14.084;2023-05-10T05:08:24;5.38;;;2.83;;
78783;SDS011;68127;51.050;14.084;2023-05-10T05:10:50;4.82;;;2.50;;
78783;SDS011;68127;51.050;14.084;2023-05-10T05:13:15;5.65;;;2.83;;
78783;SDS011;68127;51.050;14.084;2023-05-10T05:15:40;4.15;;;2.13;;
78783;SDS011;68127;51.050;14.084;2023-05-10T05:18:06;5.53;;;2.47;;
78783;SDS011;68127;51.050;14.084;2023-05-10T05:20:34;5.53;;;2.42;;
78783;SDS011;68127;51.050;14.084;2023-05-10T05:22:59;5.63;;;2.55;;
78783;SDS011;68127;51.050;14.084;2023-05-10T05:25:24;4.57;;;2.40;;
78783;SDS011;68127;51.050;14.084;2023-05-10T05:27:50;5.13;;;2.50;;
78783;SDS011;68127;51.050;14.084;2023-05-10T05:30:15;5.07;;;2.60;;
78783;SDS011;68127;51.050;14.084;2023-05-10T05:32:40;6.15;;;2.53;;
78783;SDS011;68127;51.050;14.084;2023-05-10T05:35:06;4.85;;;2.33;;
78783;SDS011;68127;51.050;14.084;2023-05-10T05:37:31;5.50;;;2.45;;
78783;SDS011;68127;51.050;14.084;2023-05-10T05:39:57;4.38;;;2.38;;
78783;SDS011;68127;51.050;14.084;2023-05-10T05:42:22;8.38;;;2.60;;
78783;SDS011;68127;51.050;14.084;2023-05-10T05:44:47;8.85;;;2.75;;
78783;SDS011;68127;51.050;14.084;2023-05-10T05:47:12;4.55;;;2.58;;
78783;SDS011;68127;51.050;14.084;2023-05-10T05:49:38;5.30;;;2.75;;
78783;SDS011;68127;51.050;14.084;2023-05-10T05:52:03;5.95;;;3.38;;
78783;SDS011;68127;51.050;14.084;2023-05-10T05:54:29;3.97;;;2.40;;
78783;SDS011;68127;51.050;14.084;2023-05-10T05:56:55;5.50;;;2.40;;
78783;SDS011;68127;51.050;14.084;2023-05-10T05:59:24;5.43;;;2.90;;
78783;SDS011;68127;51.050;14.084;2023-05-10T06:01:49;4.65;;;2.72;;
78783;SDS011;68127;51.050;14.084;2023-05-10T06:04:14;6.65;;;2.78;;
78783;SDS011;68127;51.050;14.084;2023-05-10T06:06:39;5.03;;;2.78;;
78783;SDS011;68127;51.050;14.084;2023-05-10T06:09:05;10.25;;;3.00;;
78783;SDS011;68127;51.050;14.084;2023-05-10T06:11:30;5.07;;;3.05;;
78783;SDS011;68127;51.050;14.084;2023-05-10T06:13:57;5.72;;;2.60;;
78783;SDS011;68127;51.050;14.084;2023-05-10T06:16:22;5.60;;;2.78;;
78783;SDS011;68127;51.050;14.084;2023-05-10T06:18:48;4.63;;;2.53;;
78783;SDS011;68127;51.050;14.084;2023-05-10T06:21:19;6.10;;;2.58;;
78783;SDS011;68127;51.050;14.084;2023-05-10T06:23:44;6.05;;;2.58;;
78783;SDS011;68127;51.050;14.084;2023-05-10T06:26:10;7.80;;;2.95;;
78783;SDS011;68127;51.050;14.084;2023-05-10T06:28:35;5.03;;;2.67;;
78783;SDS011;68127;51.050;14.084;2023-05-10T06:31:03;7.20;;;3.28;;
78783;SDS011;68127;51.050;14.084;2023-05-10T06:33:28;7.65;;;3.03;;
78783;SDS011;68127;51.050;14.084;2023-05-10T06:35:54;6.32;;;2.88;;
78783;SDS011;68127;51.050;14.084;2023-05-10T06:38:19;5.00;;;2.90;;
78783;SDS011;68127;51.050;14.084;2023-05-10T06:40:44;5.18;;;3.10;;
78783;SDS011;68127;51.050;14.084;2023-05-10T06:43:09;7.38;;;3.08;;
78783;SDS011;68127;51.050;14.084;2023-05-10T06:45:35;5.20;;;3.00;;
78783;SDS011;68127;51.050;14.084;2023-05-10T06:48:00;4.80;;;2.70;;
78783;SDS011;68127;51.050;14.084;2023-05-10T06:50:25;7.80;;;3.33;;
78783;SDS011;68127;51.050;14.084;2023-05-10T06:52:51;6.30;;;2.95;;
78783;SDS011;68127;51.050;14.084;2023-05-10T06:55:16;5.25;;;2.97;;
78783;SDS011;68127;51.050;14.084;2023-05-10T06:57:41;7.20;;;3.13;;
78783;SDS011;68127;51.050;14.084;2023-05-10T07:00:10;4.85;;;3.00;;
78783;SDS011;68127;51.050;14.084;2023-05-10T07:02:48;6.95;;;3.00;;
78783;SDS011;68127;51.050;14.084;2023-05-10T07:05:13;9.48;;;3.13;;
78783;SDS011;68127;51.050;14.084;2023-05-10T07:07:39;5.07;;;2.97;;
78783;SDS011;68127;51.050;14.084;2023-05-10T07:10:05;5.95;;;2.95;;
78783;SDS011;68127;51.050;14.084;2023-05-10T07:12:31;5.25;;;2.95;;
78783;SDS011;68127;51.050;14.084;2023-05-10T07:14:56;9.15;;;2.95;;
78783;SDS011;68127;51.050;14.084;2023-05-10T07:17:21;9.35;;;3.28;;
78783;SDS011;68127;51.050;14.084;2023-05-10T07:19:47;4.80;;;2.83;;
78783;SDS011;68127;51.050;14.084;2023-05-10T07:22:13;9.23;;;3.25;;
78783;SDS011;68127;51.050;14.084;2023-05-10T07:24:38;6.75;;;3.00;;
78783;SDS011;68127;51.050;14.084;2023-05-10T07:27:04;7.05;;;3.40;;
78783;SDS011;68127;51.050;14.084;2023-05-10T07:29:29;7.47;;;2.83;;
78783;SDS011;68127;51.050;14.084;2023-05-10T07:31:55;5.05;;;2.88;;
78783;SDS011;68127;51.050;14.084;2023-05-10T07:34:20;5.47;;;3.20;;
78783;SDS011;68127;51.050;14.084;2023-05-10T07:36:45;7.43;;;3.40;;
78783;SDS011;68127;51.050;14.084;2023-05-10T07:39:11;5.57;;;3.00;;
78783;SDS011;68127;51.050;14.084;2023-05-10T07:41:36;4.75;;;2.90;;
78783;SDS011;68127;51.050;14.084;2023-05-10T07:44:02;7.60;;;2.62;;
78783;SDS011;68127;51.050;14.084;2023-05-10T07:46:28;7.95;;;3.20;;
78783;SDS011;68127;51.050;14.084;2023-05-10T07:48:54;6.65;;;3.75;;
78783;SDS011;68127;51.050;14.084;2023-05-10T07:51:19;5.22;;;2.97;;
78783;SDS011;68127;51.050;14.084;2023-05-10T07:53:44;8.57;;;3.75;;
78783;SDS011;68127;51.050;14.084;2023-05-10T07:56:20;5.82;;;3.28;;
78783;SDS011;68127;51.050;14.084;2023-05-10T07:58:47;7.38;;;3.30;;
78783;SDS011;68127;51.050;14.084;2023-05-10T08:01:12;4.80;;;3.22;;
78783;SDS011;68127;51.050;14.084;2023-05-10T08:03:37;5.80;;;3.08;;
78783;SDS011;68127;51.050;14.084;2023-05-10T08:06:03;5.32;;;3.17;;
78783;SDS011;68127;51.050;14.084;2023-05-10T08:08:28;7.13;;;3.33;;
78783;SDS011;68127;51.050;14.084;2023-05-10T08:10:53;8.32;;;3.50;;
78783;SDS011;68127;51.050;14.084;2023-05-10T08:13:18;7.57;;;3.70;;
78783;SDS011;68127;51.050;14.084;2023-05-10T08:15:44;7.85;;;3.15;;
78783;SDS011;68127;51.050;14.084;2023-05-10T08:18:09;5.75;;;3.63;;
78783;SDS011;68127;51.050;14.084;2023-05-10T08:20:34;7.18;;;3.20;;
78783;SDS011;68127;51.050;14.084;2023-05-10T08:23:00;7.57;;;3.00;;
78783;SDS011;68127;51.050;14.084;2023-05-10T08:25:25;5.88;;;3.55;;
78783;SDS011;68127;51.050;14.084;2023-05-10T08:27:50;7.65;;;3.00;;
78783;SDS011;68127;51.050;14.084;2023-05-10T08:30:15;9.20;;;3.40;;
78783;SDS011;68127;51.050;14.084;2023-05-10T08:32:41;5.43;;;3.30;;
78783;SDS011;68127;51.050;14.084;2023-05-10T08:35:06;5.57;;;3.20;;
78783;SDS011;68127;51.050;14.084;2023-05-10T08:37:31;7.07;;;3.40;;
78783;SDS011;68127;51.050;14.084;2023-05-10T08:39:57;5.63;;;3.38;;
78783;SDS011;68127;51.050;14.084;2023-05-10T08:42:23;6.60;;;3.38;;
78783;SDS011;68127;51.050;14.084;2023-05-10T08:44:51;6.57;;;3.42;;
78783;SDS011;68127;51.050;14.084;2023-05-10T08:47:17;5.40;;;3.40;;
78783;SDS011;68127;51.050;14.084;2023-05-10T08:49:43;5.82;;;3.45;;
78783;SDS011;68127;51.050;14.084;2023-05-10T08:52:09;5.57;;;2.90;;
78783;SDS011;68127;51.050;14.084;2023-05-10T08:54:37;4.80;;;2.63;;
78783;SDS011;68127;51.050;14.084;2023-05-10T08:57:02;4.38;;;2.72;;
78783;SDS011;68127;51.050;14.084;2023-05-10T08:59:28;6.97;;;2.50;;
78783;SDS011;68127;51.050;14.084;2023-05-10T09:01:53;5.57;;;2.90;;
78783;SDS011;68127;51.050;14.084;2023-05-10T09:04:21;4.97;;;2.75;;
78783;SDS011;68127;51.050;14.084;2023-05-10T09:06:47;5.45;;;2.75;;
78783;SDS011;68127;51.050;14.084;2023-05-10T09:09:12;5.47;;;3.00;;
78783;SDS011;68127;51.050;14.084;2023-05-10T09:11:38;6.32;;;3.30;;
78783;SDS011;68127;51.050;14.084;2023-05-10T09:14:03;6.40;;;3.00;;
78783;SDS011;68127;51.050;14.084;2023-05-10T09:16:29;6.82;;;2.70;;
78783;SDS011;68127;51.050;14.084;2023-05-10T09:18:54;5.85;;;2.95;;
78783;SDS011;68127;51.050;14.084;2023-05-10T09:21:19;6.28;;;2.90;;
78783;SDS011;68127;51.050;14.084;2023-05-10T09:23:45;4.82;;;3.00;;
78783;SDS011;68127;51.050;14.084;2023-05-10T09:26:11;7.00;;;2.90;;
78783;SDS011;68127;51.050;14.084;2023-05-10T09:28:50;5.20;;;3.05;;
78783;SDS011;68127;51.050;14.084;2023-05-10T09:31:19;6.70;;;2.90;;
78783;SDS011;68127;51.050;14.084;2023-05-10T09:33:45;7.57;;;3.58;;
78783;SDS011;68127;51.050;14.084;2023-05-10T09:36:11;5.25;;;3.03;;
78783;SDS011;68127;51.050;14.084;2023-05-10T09:38:46;5.50;;;2.70;;
78783;SDS011;68127;51.050;14.084;2023-05-10T09:41:17;7.05;;;2.90;;
78783;SDS011;68127;51.050;14.084;2023-05-10T09:43:43;4.93;;;2.75;;
78783;SDS011;68127;51.050;14.084;2023-05-10T09:46:09;5.97;;;3.13;;
78783;SDS011;68127;51.050;14.084;2023-05-10T09:48:35;5.03;;;3.35;;
78783;SDS011;68127;51.050;14.084;2023-05-10T09:51:06;6.93;;;3.25;;
78783;SDS011;68127;51.050;14.084;2023-05-10T09:53:31;4.68;;;2.72;;
78783;SDS011;68127;51.050;14.084;2023-05-10T09:55:57;5.60;;;2.95;;
78783;SDS011;68127;51.050;14.084;2023-05-10T09:58:22;5.05;;;2.92;;
78783;SDS011;68127;51.050;14.084;2023-05-10T10:00:47;7.55;;;2.92;;
78783;SDS011;68127;51.050;14.084;2023-05-10T10:03:16;5.03;;;3.05;;
78783;SDS011;68127;51.050;14.084;2023-05-10T10:05:43;6.40;;;3.28;;
78783;SDS011;68127;51.050;14.084;2023-05-10T10:08:09;6.68;;;3.20;;
78783;SDS011;68127;51.050;14.084;2023-05-10T10:10:35;6.55;;;3.00;;
78783;SDS011;68127;51.050;14.084;2023-05-10T10:13:01;5.10;;;2.90;;
78783;SDS011;68127;51.050;14.084;2023-05-10T10:15:26;6.57;;;3.10;;
78783;SDS011;68127;51.050;14.084;2023-05-10T10:17:52;5.85;;;3.28;;
78783;SDS011;68127;51.050;14.084;2023-05-10T10:20:18;5.15;;;3.13;;
78783;SDS011;68127;51.050;14.084;2023-05-10T10:22:45;4.60;;;2.75;;
78783;SDS011;68127;51.050;14.084;2023-05-10T10:25:12;5.05;;;2.92;;
78783;SDS011;68127;51.050;14.084;2023-05-10T10:27:52;5.38;;;2.85;;
78783;SDS011;68127;51.050;14.084;2023-05-10T10:36:01;6.55;;;3.30;;
78783;SDS011;68127;51.050;14.084;2023-05-10T10:41:11;7.57;;;3.42;;
78783;SDS011;68127;51.050;14.084;2023-05-10T10:47:11;5.03;;;2.70;;
78783;SDS011;68127;51.050;14.084;2023-05-10T10:50:07;7.43;;;2.88;;
78783;SDS011;68127;51.050;14.084;2023-05-10T10:52:42;5.93;;;3.03;;
78783;SDS011;68127;51.050;14.084;2023-05-10T10:55:09;5.70;;;2.92;;
78783;SDS011;68127;51.050;14.084;2023-05-10T10:57:45;5.45;;;2.90;;
78783;SDS011;68127;51.050;14.084;2023-05-10T11:00:22;4.93;;;2.92;;
78783;SDS011;68127;51.050;14.084;2023-05-10T11:02:53;4.53;;;3.00;;
78783;SDS011;68127;51.050;14.084;2023-05-10T11:10:51;4.93;;;2.92;;
78783;SDS011;68127;51.050;14.084;2023-05-10T11:13:21;5.35;;;3.20;;
78783;SDS011;68127;51.050;14.084;2023-05-10T11:16:15;4.78;;;2.83;;
78783;SDS011;68127;51.050;14.084;2023-05-10T11:18:58;5.97;;;3.20;;
78783;SDS011;68127;51.050;14.084;2023-05-10T11:21:27;8.90;;;3.00;;
78783;SDS011;68127;51.050;14.084;2023-05-10T11:23:54;4.78;;;2.70;;
78783;SDS011;68127;51.050;14.084;2023-05-10T11:26:33;5.47;;;2.90;;
78783;SDS011;68127;51.050;14.084;2023-05-10T11:28:59;3.97;;;2.67;;
78783;SDS011;68127;51.050;14.084;2023-05-10T11:31:26;4.68;;;2.75;;
78783;SDS011;68127;51.050;14.084;2023-05-10T11:33:52;5.05;;;2.83;;
78783;SDS011;68127;51.050;14.084;2023-05-10T11:36:24;4.45;;;2.80;;
78783;SDS011;68127;51.050;14.084;2023-05-10T11:38:51;5.55;;;3.10;;
78783;SDS011;68127;51.050;14.084;2023-05-10T11:41:19;5.85;;;3.00;;
78783;SDS011;68127;51.050;14.084;2023-05-10T11:43:49;8.93;;;2.60;;
78783;SDS011;68127;51.050;14.084;2023-05-10T11:46:17;4.88;;;2.90;;
78783;SDS011;68127;51.050;14.084;2023-05-10T11:48:45;4.45;;;2.90;;
78783;SDS011;68127;51.050;14.084;2023-05-10T11:51:10;5.20;;;2.90;;
78783;SDS011;68127;51.050;14.084;2023-05-10T11:53:35;4.63;;;2.78;;
78783;SDS011;68127;51.050;14.084;2023-05-10T11:56:04;5.25;;;3.00;;
78783;SDS011;68127;51.050;14.084;2023-05-10T11:58:31;6.28;;;2.88;;
78783;SDS011;68127;51.050;14.084;2023-05-10T12:00:58;7.20;;;2.95;;
78783;SDS011;68127;51.050;14.084;2023-05-10T12:03:23;5.22;;;2.70;;
78783;SDS011;68127;51.050;14.084;2023-05-10T12:05:49;7.50;;;2.90;;
78783;SDS011;68127;51.050;14.084;2023-05-10T12:08:14;6.05;;;2.75;;
78783;SDS011;68127;51.050;14.084;2023-05-10T12:10:40;4.82;;;2.85;;
78783;SDS011;68127;51.050;14.084;2023-05-10T12:13:10;4.10;;;2.50;;
78783;SDS011;68127;51.050;14.084;2023-05-10T12:15:36;4.57;;;2.60;;
78783;SDS011;68127;51.050;14.084;2023-05-10T12:18:02;5.00;;;2.85;;
78783;SDS011;68127;51.050;14.084;2023-05-10T12:20:27;5.90;;;2.75;;
78783;SDS011;68127;51.050;14.084;2023-05-10T12:22:54;4.63;;;2.55;;
78783;SDS011;68127;51.050;14.084;2023-05-10T12:25:21;5.50;;;2.78;;
78783;SDS011;68127;51.050;14.084;2023-05-10T12:27:51;4.25;;;2.70;;
78783;SDS011;68127;51.050;14.084;2023-05-10T12:30:26;5.80;;;2.50;;
78783;SDS011;68127;51.050;14.084;2023-05-10T12:32:53;4.40;;;2.70;;
78783;SDS011;68127;51.050;14.084;2023-05-10T12:35:18;6.47;;;2.50;;
78783;SDS011;68127;51.050;14.084;2023-05-10T12:37:48;5.65;;;2.50;;
78783;SDS011;68127;51.050;14.084;2023-05-10T12:40:14;5.20;;;2.72;;
78783;SDS011;68127;51.050;14.084;2023-05-10T12:42:39;5.38;;;2.80;;
78783;SDS011;68127;51.050;14.084;2023-05-10T12:45:05;4.03;;;2.63;;
78783;SDS011;68127;51.050;14.084;2023-05-10T12:47:31;5.97;;;2.50;;
78783;SDS011;68127;51.050;14.084;2023-05-10T12:49:57;5.13;;;3.20;;
78783;SDS011;68127;51.050;14.084;2023-05-10T12:52:23;5.20;;;2.53;;
78783;SDS011;68127;51.050;14.084;2023-05-10T12:54:49;4.57;;;2.72;;
78783;SDS011;68127;51.050;14.084;2023-05-10T12:57:14;5.85;;;2.22;;
78783;SDS011;68127;51.050;14.084;2023-05-10T12:59:39;6.25;;;2.75;;
78783;SDS011;68127;51.050;14.084;2023-05-10T13:02:05;4.72;;;2.70;;
78783;SDS011;68127;51.050;14.084;2023-05-10T13:04:31;5.78;;;3.10;;
78783;SDS011;68127;51.050;14.084;2023-05-10T13:06:56;5.68;;;2.88;;
78783;SDS011;68127;51.050;14.084;2023-05-10T13:09:23;3.90;;;2.60;;
78783;SDS011;68127;51.050;14.084;2023-05-10T13:11:51;6.47;;;2.50;;
78783;SDS011;68127;51.050;14.084;2023-05-10T13:14:19;5.75;;;2.65;;
78783;SDS011;68127;51.050;14.084;2023-05-10T13:16:45;4.70;;;2.72;;
78783;SDS011;68127;51.050;14.084;2023-05-10T13:19:10;4.90;;;2.83;;
78783;SDS011;68127;51.050;14.084;2023-05-10T13:21:36;6.10;;;2.95;;
78783;SDS011;68127;51.050;14.084;2023-05-10T13:24:01;5.07;;;2.85;;
78783;SDS011;68127;51.050;14.084;2023-05-10T13:26:26;5.05;;;2.92;;
78783;SDS011;68127;51.050;14.084;2023-05-10T13:28:52;4.60;;;2.90;;
78783;SDS011;68127;51.050;14.084;2023-05-10T13:31:17;4.97;;;2.83;;
78783;SDS011;68127;51.050;14.084;2023-05-10T13:33:42;6.05;;;2.80;;
78783;SDS011;68127;51.050;14.084;2023-05-10T13:36:08;8.68;;;2.78;;
78783;SDS011;68127;51.050;14.084;2023-05-10T13:38:33;6.70;;;3.15;;
78783;SDS011;68127;51.050;14.084;2023-05-10T13:40:58;5.35;;;2.95;;
78783;SDS011;68127;51.050;14.084;2023-05-10T13:43:23;5.45;;;2.80;;
78783;SDS011;68127;51.050;14.084;2023-05-10T13:45:49;4.90;;;2.88;;
78783;SDS011;68127;51.050;14.084;2023-05-10T13:48:14;5.50;;;2.70;;
78783;SDS011;68127;51.050;14.084;2023-05-10T13:50:39;6.03;;;3.00;;
78783;SDS011;68127;51.050;14.084;2023-05-10T13:53:05;5.20;;;2.90;;
78783;SDS011;68127;51.050;14.084;2023-05-10T13:55:30;5.45;;;2.70;;
78783;SDS011;68127;51.050;14.084;2023-05-10T13:57:55;7.05;;;3.00;;
78783;SDS011;68127;51.050;14.084;2023-05-10T14:00:21;4.75;;;2.95;;
78783;SDS011;68127;51.050;14.084;2023-05-10T14:02:46;4.15;;;2.58;;
78783;SDS011;68127;51.050;14.084;2023-05-10T14:05:11;4.68;;;2.65;;
78783;SDS011;68127;51.050;14.084;2023-05-10T14:07:37;4.65;;;3.00;;
78783;SDS011;68127;51.050;14.084;2023-05-10T14:10:02;5.75;;;2.75;;
78783;SDS011;68127;51.050;14.084;2023-05-10T14:12:28;4.32;;;2.72;;
78783;SDS011;68127;51.050;14.084;2023-05-10T14:14:53;7.95;;;2.90;;
78783;SDS011;68127;51.050;14.084;2023-05-10T14:17:19;5.60;;;2.65;;
78783;SDS011;68127;51.050;14.084;2023-05-10T14:19:44;5.57;;;3.00;;
78783;SDS011;68127;51.050;14.084;2023-05-10T14:22:09;5.30;;;2.63;;
78783;SDS011;68127;51.050;14.084;2023-05-10T14:24:35;5.03;;;2.95;;
78783;SDS011;68127;51.050;14.084;2023-05-10T14:27:00;4.32;;;2.88;;
78783;SDS011;68127;51.050;14.084;2023-05-10T14:29:26;6.13;;;3.28;;
78783;SDS011;68127;51.050;14.084;2023-05-10T14:31:51;5.32;;;2.70;;
78783;SDS011;68127;51.050;14.084;2023-05-10T14:34:16;4.35;;;2.58;;
78783;SDS011;68127;51.050;14.084;2023-05-10T14:36:41;7.43;;;2.90;;
78783;SDS011;68127;51.050;14.084;2023-05-10T14:39:07;5.40;;;2.90;;
78783;SDS011;68127;51.050;14.084;2023-05-10T14:41:32;5.90;;;2.70;;
78783;SDS011;68127;51.050;14.084;2023-05-10T14:43:58;5.90;;;2.80;;
78783;SDS011;68127;51.050;14.084;2023-05-10T14:46:23;5.13;;;2.80;;
78783;SDS011;68127;51.050;14.084;2023-05-10T14:48:56;5.32;;;2.95;;
78783;SDS011;68127;51.050;14.084;2023-05-10T14:51:21;4.38;;;2.75;;
78783;SDS011;68127;51.050;14.084;2023-05-10T14:53:47;5.05;;;3.00;;
78783;SDS011;68127;51.050;14.084;2023-05-10T14:56:13;7.15;;;3.10;;
78783;SDS011;68127;51.050;14.084;2023-05-10T14:58:38;5.97;;;2.60;;